Time;durP1;ratioP1;P1;durP2;ratioP2;P2;SDS_P1;SDS_P2;PMS_P1;PMS_P2;Temp;Humidity;BMP_temperature;BMP_pressure;BME280_temperature;BME280_humidity;BME280_pressure;Samples;Min_cycle;Max_cycle;Signal;HPM_P1;HPM_P2
2021/08/10 00:00:46;;;;;;;3.05;1.00;;;;;;;17.43;76.26;100631.16;3585059;40;20065;-82
2021/08/10 00:03:15;;;;;;;2.28;0.98;;;;;;;17.38;76.62;100628.75;3574971;40;20049;-80
2021/08/10 00:05:51;;;;;;;2.45;1.10;;;;;;;17.42;76.91;100630.31;3548928;39;20952;-82
2021/08/10 00:08:20;;;;;;;2.42;0.88;;;;;;;17.41;77.16;100630.38;3539939;40;20050;-81
2021/08/10 00:10:50;;;;;;;3.03;1.40;;;;;;;17.47;76.94;100637.97;3540563;40;21118;-83
2021/08/10 00:13:19;;;;;;;3.55;1.15;;;;;;;17.40;76.83;100618.13;3521357;40;20091;-81
2021/08/10 00:15:47;;;;;;;3.85;1.42;;;;;;;17.47;76.64;100632.69;3558061;40;20695;-82
2021/08/10 00:18:17;;;;;;;2.53;1.10;;;;;;;17.53;76.99;100632.38;3566255;40;20050;-81
2021/08/10 00:20:44;;;;;;;4.82;1.67;;;;;;;17.51;76.40;100634.25;3547560;40;20122;-81
2021/08/10 00:23:11;;;;;;;2.50;1.30;;;;;;;17.55;76.65;100630.53;3548524;40;20092;-81
2021/08/10 00:25:39;;;;;;;3.38;1.50;;;;;;;17.56;77.10;100616.38;3551859;40;20046;-81
2021/08/10 00:28:06;;;;;;;3.92;1.02;;;;;;;17.61;76.68;100627.56;3563779;40;20030;-81
2021/08/10 00:30:35;;;;;;;;;;;;;;;17.71;75.88;100631.41;3548030;40;20089;-82
2021/08/10 00:33:05;;;;;;;1.52;0.77;;;;;;;17.70;76.76;100629.72;3556676;40;20258;-81
2021/08/10 00:38:08;;;;;;;3.17;1.25;;;;;;;17.77;76.94;100640.81;3586228;40;20488;-81
2021/08/10 00:40:38;;;;;;;1.55;0.90;;;;;;;17.78;77.00;100643.38;3575060;40;20426;-81
2021/08/10 00:43:30;;;;;;;3.10;1.42;;;;;;;17.83;76.21;100651.91;3587088;39;20024;-82
2021/08/10 00:46:01;;;;;;;1.88;1.00;;;;;;;17.82;76.83;100658.13;3575383;40;20046;-81
2021/08/10 00:48:35;;;;;;;3.20;1.65;;;;;;;17.85;76.18;100654.50;3579020;40;20044;-82
2021/08/10 00:51:10;;;;;;;3.53;1.25;;;;;;;17.83;76.46;100662.47;3540764;40;20082;-82
2021/08/10 00:53:39;;;;;;;3.70;1.50;;;;;;;17.82;76.21;100660.78;3575121;40;20040;-82
2021/08/10 00:56:09;;;;;;;2.17;1.20;;;;;;;17.82;76.57;100650.22;3551030;40;20053;-81
2021/08/10 01:01:38;;;;;;;2.47;1.20;;;;;;;17.85;76.84;100652.69;3658553;22;20100;-82
2021/08/10 01:04:38;;;;;;;1.95;1.05;;;;;;;17.92;76.60;100655.00;3656945;23;20025;-82
2021/08/10 01:07:31;;;;;;;4.30;1.50;;;;;;;17.92;76.53;100661.13;3580799;40;20079;-81
2021/08/10 01:10:11;;;;;;;2.63;1.13;;;;;;;17.94;76.98;100661.03;3561413;40;20052;-81
2021/08/10 01:13:10;;;;;;;1.77;1.00;;;;;;;17.96;76.29;100656.53;3561541;40;20082;-81
2021/08/10 01:15:50;;;;;;;3.03;1.13;;;;;;;17.93;76.98;100654.06;3559867;40;20049;-80
2021/08/10 01:18:26;;;;;;;1.60;0.77;;;;;;;17.89;76.75;100656.00;3566588;40;20397;-81
2021/08/10 01:21:09;;;;;;;2.95;1.00;;;;;;;17.94;76.89;100653.97;3565638;40;20054;-81
2021/08/10 01:23:38;;;;;;;2.47;1.17;;;;;;;17.87;77.18;100653.47;3574875;40;20056;-80
2021/08/10 01:26:33;;;;;;;2.60;1.23;;;;;;;17.97;76.48;100663.53;3579758;40;20058;-81
2021/08/10 01:29:30;;;;;;;3.80;1.67;;;;;;;17.96;76.26;100665.31;3540116;40;20049;-81
2021/08/10 01:35:05;;;;;;;2.47;1.20;;;;;;;17.88;76.84;100665.72;3538582;40;20092;-81
2021/08/10 01:37:39;;;;;;;2.97;1.40;;;;;;;17.91;76.31;100674.44;3532146;40;20557;-82
2021/08/10 01:40:10;;;;;;;4.10;1.33;;;;;;;17.86;77.12;100667.59;3548816;40;20381;-81
2021/08/10 01:42:42;;;;;;;1.83;0.90;;;;;;;17.87;76.86;100676.38;3537574;40;20487;-82
2021/08/10 01:45:11;;;;;;;2.28;1.20;;;;;;;17.86;77.13;100675.53;3527830;40;20109;-81
2021/08/10 01:50:39;;;;;;;4.72;1.75;;;;;;;17.84;76.37;100689.75;3575527;40;20043;-81
2021/08/10 01:53:17;;;;;;;2.33;1.10;;;;;;;17.89;76.80;100693.88;3571807;40;20056;-82
2021/08/10 01:55:46;;;;;;;1.70;0.90;;;;;;;17.85;77.33;100692.31;3553056;40;20061;-82
2021/08/10 01:58:26;;;;;;;2.22;1.20;;;;;;;17.86;77.48;100682.59;3550909;40;21093;-82
2021/08/10 02:00:57;;;;;;;1.85;0.82;;;;;;;17.85;77.95;100676.47;3568121;40;20069;-82
2021/08/10 02:03:28;;;;;;;2.60;1.30;;;;;;;17.90;78.20;100689.44;3561126;40;20481;-82
2021/08/10 02:06:02;;;;;;;3.10;1.35;;;;;;;17.88;77.48;100689.50;3564606;40;20057;-82
2021/08/10 02:08:32;;;;;;;3.97;1.30;;;;;;;17.93;77.01;100693.69;3572985;40;20071;-81
2021/08/10 02:11:01;;;;;;;5.53;1.80;;;;;;;17.92;76.53;100692.84;3580138;40;20021;-82
2021/08/10 02:16:23;;;;;;;2.45;1.30;;;;;;;17.88;76.77;100675.44;3581657;40;20468;-82
2021/08/10 02:18:50;;;;;;;2.42;1.05;;;;;;;17.95;76.67;100691.84;3570303;40;20034;-81
2021/08/10 02:21:44;;;;;;;5.22;1.35;;;;;;;18.02;76.72;100701.97;3542350;40;20052;-82
2021/08/10 02:24:23;;;;;;;1.42;0.85;;;;;;;18.02;76.58;100703.78;3564378;40;20092;-81
2021/08/10 02:27:02;;;;;;;1.65;1.10;;;;;;;17.87;76.93;100679.88;3570543;40;20132;-82
2021/08/10 02:29:39;;;;;;;2.17;0.85;;;;;;;18.01;77.28;100704.72;3556886;40;20120;-81
2021/08/10 02:32:10;;;;;;;3.92;1.52;;;;;;;17.97;76.93;100703.16;3563168;40;20620;-82
2021/08/10 02:34:41;;;;;;;2.45;1.10;;;;;;;17.99;77.17;100706.56;3576391;40;20048;-81
2021/08/10 02:37:15;;;;;;;3.40;1.70;;;;;;;18.02;76.56;100711.69;3566881;40;20037;-82
2021/08/10 02:40:14;;;;;;;3.33;1.10;;;;;;;18.07;77.03;100717.59;3576527;40;20705;-82
2021/08/10 02:42:48;;;;;;;1.98;0.80;;;;;;;18.04;76.92;100717.75;3539153;40;20060;-81
2021/08/10 02:45:15;;;;;;;5.13;1.17;;;;;;;18.03;75.92;100722.19;3543364;40;20051;-81
2021/08/10 02:47:56;;;;;;;3.60;1.70;;;;;;;18.06;76.20;100721.19;3522754;40;20035;-82
2021/08/10 02:50:30;;;;;;;3.17;1.40;;;;;;;18.03;76.16;100721.31;3550535;40;20475;-82
2021/08/10 02:52:57;;;;;;;3.80;1.52;;;;;;;17.97;75.94;100713.72;3550486;40;20041;-81
2021/08/10 02:55:29;;;;;;;5.45;2.10;;;;;;;18.00;75.62;100722.38;3544398;40;20055;-82
2021/08/10 02:58:10;;;;;;;4.93;1.65;;;;;;;18.00;75.58;100732.06;3524845;40;20039;-82
2021/08/10 03:00:48;;;;;;;4.15;1.77;;;;;;;17.99;75.33;100725.91;3531437;40;20055;-82
2021/08/10 03:03:23;;;;;;;3.97;1.70;;;;;;;17.99;76.01;100735.63;3485929;40;20843;-81
2021/08/10 03:06:40;;;;;;;2.72;1.10;;;;;;;17.97;76.12;100732.22;3528529;40;20058;-82
2021/08/10 03:09:12;;;;;;;3.95;1.45;;;;;;;17.90;76.10;100737.00;3513206;40;20945;-81
2021/08/10 03:11:42;;;;;;;1.85;0.95;;;;;;;17.91;76.18;100735.19;3509964;40;20516;-81
2021/08/10 03:14:11;;;;;;;3.10;1.50;;;;;;;17.91;75.79;100741.34;3501377;40;20050;-82
2021/08/10 03:17:07;;;;;;;3.95;1.27;;;;;;;17.92;76.32;100739.53;3532767;40;20584;-82
2021/08/10 03:19:41;;;;;;;2.03;0.90;;;;;;;17.91;76.71;100745.78;3527854;40;20145;-81
2021/08/10 03:22:11;;;;;;;2.45;1.20;;;;;;;17.86;76.94;100736.28;3529004;40;20509;-82
2021/08/10 03:24:41;;;;;;;3.13;1.40;;;;;;;17.86;76.46;100746.84;3521634;40;20107;-82
2021/08/10 03:27:23;;;;;;;3.53;1.30;;;;;;;17.89;76.76;100744.06;3534007;40;20048;-82
2021/08/10 03:29:55;;;;;;;2.45;1.00;;;;;;;17.90;76.71;100747.56;3538353;40;20055;-82
2021/08/10 03:32:23;;;;;;;1.88;0.93;;;;;;;17.84;76.67;100738.16;3556170;40;20092;-82
2021/08/10 03:34:51;;;;;;;4.50;1.80;;;;;;;17.84;76.40;100746.09;3552086;40;20039;-81
2021/08/10 03:37:29;;;;;;;2.97;1.40;;;;;;;17.87;76.47;100748.56;3548280;40;20046;-82
2021/08/10 03:39:57;;;;;;;2.28;1.10;;;;;;;17.81;76.88;100740.97;3538829;40;20621;-82
2021/08/10 03:42:29;;;;;;;5.43;1.50;;;;;;;17.89;76.47;100754.63;3535470;40;20067;-82
2021/08/10 03:44:56;;;;;;;1.73;0.80;;;;;;;17.86;76.84;100757.44;3545362;40;20067;-82
2021/08/10 03:47:28;;;;;;;1.85;1.02;;;;;;;17.88;76.52;100755.53;3524589;40;20065;-82
2021/08/10 03:50:03;;;;;;;2.42;1.13;;;;;;;17.89;76.97;100752.00;3537067;40;20067;-82
2021/08/10 03:52:30;;;;;;;5.30;1.50;;;;;;;17.83;76.34;100756.72;3545238;40;20321;-81
2021/08/10 03:54:58;;;;;;;5.97;1.90;;;;;;;17.75;75.92;100741.28;3538201;40;20047;-82
2021/08/10 03:57:29;;;;;;;2.13;1.33;;;;;;;17.85;75.40;100755.72;3515111;40;20817;-82
2021/08/10 03:59:59;;;;;;;4.88;1.60;;;;;;;17.85;76.21;100763.66;3527944;40;20059;-81
2021/08/10 04:02:29;;;;;;;4.38;1.48;;;;;;;17.82;76.35;100755.88;3523895;40;20054;-81
2021/08/10 04:04:56;;;;;;;3.72;1.48;;;;;;;17.84;76.38;100759.31;3534297;40;20786;-82
2021/08/10 04:07:30;;;;;;;2.28;1.00;;;;;;;17.88;76.05;100770.53;3498745;40;20063;-81
2021/08/10 04:10:10;;;;;;;5.85;1.42;;;;;;;17.89;76.11;100772.25;3521415;40;20118;-81
2021/08/10 04:12:44;;;;;;;2.17;1.15;;;;;;;17.87;76.30;100769.69;3562478;23;20049;-81
2021/08/10 04:15:12;;;;;;;1.83;0.88;;;;;;;17.82;76.75;100770.88;3557379;40;20138;-81
2021/08/10 04:18:06;;;;;;;1.83;1.05;;;;;;;17.85;76.52;100782.13;3553133;40;20058;-82
2021/08/10 04:20:33;;;;;;;2.72;1.08;;;;;;;17.74;76.59;100767.75;3549493;40;20060;-81
2021/08/10 04:23:00;;;;;;;5.97;1.80;;;;;;;17.77;75.35;100767.59;3565445;40;20114;-81
2021/08/10 04:25:28;;;;;;;;;;;;;;;17.83;76.26;100773.41;3549435;40;20058;-82
2021/08/10 04:27:55;;;;;;;3.58;1.35;;;;;;;17.73;75.77;100766.91;3579315;40;19986;-80
2021/08/10 04:30:25;;;;;;;3.38;1.10;;;;;;;17.72;76.42;100773.09;3546133;40;20057;-81
2021/08/10 04:32:54;;;;;;;2.13;1.10;;;;;;;17.74;76.93;100779.19;3521435;40;20431;-82
2021/08/10 04:35:22;;;;;;;2.70;1.30;;;;;;;17.71;77.20;100779.31;3535231;40;20032;-82
2021/08/10 04:37:50;;;;;;;5.13;1.60;;;;;;;17.69;76.46;100781.19;3520156;40;20052;-81
2021/08/10 04:40:17;;;;;;;3.70;1.25;;;;;;;17.64;76.79;100783.22;3527122;40;20106;-82
2021/08/10 04:43:05;;;;;;;5.25;1.67;;;;;;;17.67;76.43;100780.41;3517425;40;20094;-82
2021/08/10 04:45:34;;;;;;;5.50;1.98;;;;;;;17.62;76.31;100774.50;3501137;40;20064;-82
2021/08/10 04:48:01;;;;;;;4.55;1.90;;;;;;;17.62;76.04;100779.78;3504360;41;20132;-82
2021/08/10 04:50:30;;;;;;;3.53;1.38;;;;;;;17.53;76.33;100769.66;3501851;40;20033;-82
2021/08/10 04:52:59;;;;;;;3.95;1.70;;;;;;;17.61;75.90;100783.34;3503577;41;20454;-82
2021/08/10 04:55:26;;;;;;;5.80;1.83;;;;;;;17.56;76.46;100780.09;3510888;41;20769;-81
2021/08/10 04:57:53;;;;;;;3.88;1.70;;;;;;;17.57;76.10;100795.00;3500342;41;20057;-81
2021/08/10 05:00:29;;;;;;;4.70;2.08;;;;;;;17.56;75.15;100790.66;3514270;40;20044;-81
2021/08/10 05:03:02;;;;;;;3.30;1.20;;;;;;;17.56;76.25;100795.94;3491171;40;20037;-81
2021/08/10 05:05:30;;;;;;;4.28;1.75;;;;;;;17.53;75.85;100807.50;3522418;40;20060;-82
2021/08/10 05:07:58;;;;;;;3.83;1.65;;;;;;;17.43;76.05;100793.03;3501945;41;20021;-81
2021/08/10 05:10:26;;;;;;;5.38;2.35;;;;;;;17.46;75.64;100805.25;3492149;41;20443;-81
2021/08/10 05:12:55;;;;;;;7.47;2.22;;;;;;;17.45;75.78;100798.25;3495241;41;20085;-81
2021/08/10 05:15:24;;;;;;;5.35;2.45;;;;;;;17.47;75.45;100809.59;3491071;41;20347;-81
2021/08/10 05:17:50;;;;;;;4.43;1.85;;;;;;;17.41;75.81;100802.84;3471194;41;20116;-81
2021/08/10 05:20:20;;;;;;;6.30;2.53;;;;;;;17.27;75.72;100794.72;3489829;41;20052;-81
2021/08/10 05:22:47;;;;;;;8.68;2.85;;;;;;;17.42;74.39;100816.88;3510936;41;20044;-81
2021/08/10 05:25:15;;;;;;;7.45;2.17;;;;;;;17.35;74.99;100817.19;3520346;40;20042;-81
2021/08/10 05:27:42;;;;;;;8.85;2.90;;;;;;;17.34;74.52;100819.91;3521341;40;20043;-81
2021/08/10 05:30:09;;;;;;;5.75;2.00;;;;;;;17.21;75.82;100806.44;3528620;40;20036;-81
2021/08/10 05:32:36;;;;;;;6.13;2.40;;;;;;;17.23;74.94;100815.13;3525494;40;20042;-81
2021/08/10 05:35:25;;;;;;;6.75;2.75;;;;;;;17.31;75.00;100839.38;3509734;40;20063;-82
2021/08/10 05:40:43;;;;;;;7.18;2.58;;;;;;;17.24;74.85;100843.25;3591553;40;20416;-82
2021/08/10 05:49:00;;;;;;;4.68;2.00;;;;;;;17.21;75.90;100853.94;3616754;23;20129;-82
2021/08/10 05:51:27;;;;;;;9.32;2.90;;;;;;;17.15;75.22;100853.41;3576543;40;20060;-81
2021/08/10 05:53:58;;;;;;;5.68;2.00;;;;;;;17.17;75.69;100849.75;3584677;40;20493;-82
2021/08/10 05:56:25;;;;;;;8.68;2.85;;;;;;;17.12;75.64;100849.09;3578000;40;20022;-82
2021/08/10 05:58:51;;;;;;;7.03;3.50;;;;;;;17.14;75.51;100852.53;3582210;40;20023;-82
2021/08/10 06:01:18;;;;;;;10.35;4.00;;;;;;;17.14;75.35;100852.53;3583114;40;21366;-82
2021/08/10 06:06:28;;;;;;;13.38;3.78;;;;;;;17.13;74.64;100861.38;3587809;40;21079;-81
2021/08/10 06:08:56;;;;;;;6.18;2.58;;;;;;;17.10;75.25;100857.09;3580895;40;20053;-81
2021/08/10 06:11:23;;;;;;;10.23;4.22;;;;;;;17.07;74.61;100853.75;3563479;40;20361;-81
2021/08/10 06:13:51;;;;;;;7.40;2.95;;;;;;;17.04;75.24;100856.53;3589151;23;20049;-81
2021/08/10 06:16:18;;;;;;;9.60;2.85;;;;;;;16.99;75.62;100853.25;3582414;40;20526;-80
2021/08/10 06:18:45;;;;;;;9.47;3.20;;;;;;;16.97;75.24;100849.81;3567873;40;20100;-81
2021/08/10 06:21:18;;;;;;;8.57;3.58;;;;;;;17.02;74.81;100868.94;3582343;40;20327;-81
2021/08/10 06:23:45;;;;;;;6.57;3.50;;;;;;;16.96;75.24;100856.03;3579125;40;20298;-81
2021/08/10 06:26:12;;;;;;;9.93;2.67;;;;;;;16.97;75.39;100855.09;3578828;40;20038;-81
2021/08/10 06:28:41;;;;;;;5.28;1.77;;;;;;;16.82;75.56;100840.84;3561421;40;20025;-81
2021/08/10 06:31:11;;;;;;;6.88;2.85;;;;;;;16.92;75.61;100851.81;3571732;40;20030;-81
2021/08/10 06:33:39;;;;;;;6.45;2.65;;;;;;;16.94;75.36;100861.38;3561578;40;20085;-81
2021/08/10 06:36:12;;;;;;;4.28;1.88;;;;;;;16.79;75.82;100831.31;3552956;40;21087;-81
2021/08/10 06:38:43;;;;;;;5.25;2.15;;;;;;;16.94;75.86;100856.13;3576879;40;20029;-80
2021/08/10 06:41:10;;;;;;;7.80;2.83;;;;;;;16.91;75.94;100861.53;3575846;40;20030;-81
2021/08/10 06:43:37;;;;;;;7.15;3.08;;;;;;;16.89;75.43;100855.47;3560899;40;20029;-80
2021/08/10 06:46:24;;;;;;;5.10;1.83;;;;;;;16.89;76.20;100859.91;3558628;40;20072;-81
2021/08/10 06:48:54;;;;;;;4.45;2.03;;;;;;;16.94;76.27;100871.09;3555049;40;20137;-81
2021/08/10 06:51:26;;;;;;;4.90;2.00;;;;;;;16.95;76.34;100865.72;3550328;40;20794;-81
2021/08/10 06:53:53;;;;;;;5.57;2.00;;;;;;;16.93;76.46;100856.16;3569144;40;20037;-82
2021/08/10 06:56:20;;;;;;;6.33;2.30;;;;;;;17.01;76.17;100867.22;3565898;40;20021;-82
2021/08/10 07:01:51;;;;;;;7.25;2.97;;;;;;;17.08;75.18;100869.53;3581940;40;20057;-82
2021/08/10 07:04:20;;;;;;;6.90;2.97;;;;;;;17.16;75.96;100877.06;3582219;40;20091;-82
2021/08/10 07:06:54;;;;;;;5.85;2.55;;;;;;;17.16;76.29;100863.88;3568116;40;20053;-81
2021/08/10 07:12:22;;;;;;;3.53;1.60;;;;;;;17.23;75.87;100875.84;3588476;40;20064;-81
2021/08/10 07:14:53;;;;;;;4.75;1.88;;;;;;;17.28;75.81;100881.75;3548597;40;20084;-79
2021/08/10 07:17:23;;;;;;;3.78;1.63;;;;;;;17.25;76.12;100871.34;3567828;40;20060;-81
2021/08/10 07:19:54;;;;;;;9.02;3.05;;;;;;;17.24;75.57;100872.28;3576105;40;20059;-82
2021/08/10 07:22:27;;;;;;;6.85;1.75;;;;;;;17.37;76.07;100888.38;3574585;40;20056;-81
2021/08/10 07:25:04;;;;;;;6.07;2.53;;;;;;;17.38;75.75;100892.72;3557816;40;20045;-82
2021/08/10 07:27:31;;;;;;;6.30;2.67;;;;;;;17.45;75.69;100893.31;3522328;40;20030;-81
2021/08/10 07:30:00;;;;;;;8.02;3.28;;;;;;;17.48;75.33;100895.78;3539633;40;20043;-82
2021/08/10 07:32:32;;;;;;;8.73;3.13;;;;;;;17.50;74.84;100891.31;3526267;40;20063;-82
2021/08/10 07:35:08;;;;;;;5.55;2.42;;;;;;;17.57;75.88;100893.56;3536376;40;20043;-82
2021/08/10 07:37:42;;;;;;;7.82;2.90;;;;;;;17.56;74.67;100893.63;3539848;40;20389;-82
2021/08/10 07:40:13;;;;;;;6.40;2.53;;;;;;;17.59;74.17;100901.41;3507535;40;20102;-82
2021/08/10 07:42:43;;;;;;;6.13;2.53;;;;;;;17.56;74.61;100896.28;3525904;40;20024;-82
2021/08/10 07:45:12;;;;;;;4.35;2.17;;;;;;;17.62;74.59;100909.19;3501943;40;20047;-81
2021/08/10 07:47:42;;;;;;;6.95;2.58;;;;;;;17.62;73.92;100917.94;3499294;40;20586;-82
2021/08/10 07:50:10;;;;;;;6.43;2.83;;;;;;;17.60;73.97;100897.84;3513668;40;20037;-82
2021/08/10 07:52:39;;;;;;;;;;;;;;;17.68;75.30;100915.94;3512992;40;20532;-82
2021/08/10 07:55:07;;;;;;;3.78;1.73;;;;;;;17.56;74.23;100906.84;3490439;40;19967;-82
2021/08/10 07:57:35;;;;;;;5.93;2.55;;;;;;;17.50;73.07;100901.88;3526428;40;20060;-82
2021/08/10 08:00:15;;;;;;;2.67;1.17;;;;;;;17.62;74.97;100917.09;3532752;40;20025;-82
2021/08/10 08:02:48;;;;;;;7.55;1.70;;;;;;;17.60;74.84;100914.53;3534671;40;20039;-82
2021/08/10 08:05:17;;;;;;;6.85;2.17;;;;;;;17.60;74.30;100911.06;3542564;40;20055;-80
2021/08/10 08:07:44;;;;;;;4.72;2.25;;;;;;;17.66;74.18;100916.03;3548060;40;20046;-82
2021/08/10 08:10:37;;;;;;;6.90;2.25;;;;;;;17.79;75.58;100911.91;3547625;40;20511;-81
2021/08/10 08:16:13;;;;;;;4.38;1.67;;;;;;;17.86;74.89;100907.16;3585919;40;20029;-82
2021/08/10 08:18:43;;;;;;;5.35;2.70;;;;;;;17.93;74.19;100905.06;3575756;40;20017;-81
2021/08/10 08:21:18;;;;;;;5.95;1.95;;;;;;;18.07;75.03;100913.16;3578461;40;20064;-81
2021/08/10 08:23:55;;;;;;;8.27;3.72;;;;;;;18.04;73.77;100892.16;3562894;40;20045;-81
2021/08/10 08:26:23;;;;;;;8.68;3.90;;;;;;;18.21;73.59;100921.25;3555729;40;20481;-81
2021/08/10 08:28:55;;;;;;;7.38;2.30;;;;;;;18.31;73.64;100917.19;3562294;40;20413;-82
2021/08/10 08:31:31;;;;;;;8.80;3.00;;;;;;;18.47;74.80;100908.47;3556997;40;20387;-82
2021/08/10 08:34:02;;;;;;;7.07;3.10;;;;;;;18.50;73.33;100900.34;3566576;40;20061;-82
2021/08/10 08:36:30;;;;;;;9.13;3.45;;;;;;;18.50;73.63;100890.66;3538177;40;20046;-81
2021/08/10 08:38:58;;;;;;;10.23;4.10;;;;;;;18.78;71.58;100916.50;3543703;40;20058;-82
2021/08/10 08:41:29;;;;;;;8.80;3.78;;;;;;;18.91;71.91;100912.28;3547987;40;20049;-82
2021/08/10 08:43:57;;;;;;;10.55;3.92;;;;;;;18.98;71.55;100918.09;3566228;40;20053;-82
2021/08/10 08:46:24;;;;;;;7.20;3.10;;;;;;;19.12;71.71;100914.72;3546163;40;20646;-81
2021/08/10 08:48:57;;;;;;;7.65;3.42;;;;;;;19.20;71.02;100915.13;3549478;40;20057;-81
2021/08/10 08:51:27;;;;;;;8.57;3.92;;;;;;;19.31;71.26;100923.34;3569465;40;20045;-82
2021/08/10 08:53:57;;;;;;;7.93;3.80;;;;;;;19.44;70.93;100920.84;3551598;40;20052;-81
2021/08/10 08:56:31;;;;;;;6.80;2.90;;;;;;;19.59;71.43;100919.13;3543485;40;20510;-82
2021/08/10 08:59:02;;;;;;;8.35;3.10;;;;;;;19.72;70.33;100920.19;3578521;40;20029;-82
2021/08/10 09:01:33;;;;;;;6.22;2.80;;;;;;;19.79;71.33;100918.03;3546147;40;20053;-81
2021/08/10 09:04:00;;;;;;;8.20;3.78;;;;;;;19.84;69.44;100914.16;3546998;40;20498;-81
2021/08/10 09:06:28;;;;;;;7.20;3.50;;;;;;;20.01;68.54;100930.88;3511016;40;20135;-81
2021/08/10 09:09:27;;;;;;;9.45;3.58;;;;;;;20.20;71.61;100926.22;3544242;40;20041;-81
2021/08/10 09:12:09;;;;;;;8.13;3.80;;;;;;;20.24;69.64;100911.84;3532929;40;20055;-82
2021/08/10 09:14:46;;;;;;;9.20;3.90;;;;;;;20.35;69.69;100925.28;3551331;40;20596;-82
2021/08/10 09:17:22;;;;;;;6.43;3.28;;;;;;;20.43;69.69;100923.06;3544856;40;20098;-82
2021/08/10 09:19:58;;;;;;;7.75;3.55;;;;;;;20.44;66.39;100923.91;3552900;40;20090;-82
2021/08/10 09:22:32;;;;;;;7.93;3.28;;;;;;;20.49;68.92;100921.84;3545372;40;20041;-82
2021/08/10 09:25:25;;;;;;;8.88;3.03;;;;;;;20.46;67.48;100917.56;3531333;40;20078;-82
2021/08/10 09:28:06;;;;;;;9.70;3.75;;;;;;;20.52;68.51;100920.81;3530351;40;20066;-82
2021/08/10 09:30:35;;;;;;;7.55;3.33;;;;;;;20.46;67.36;100912.28;3525981;40;20260;-82
2021/08/10 09:33:05;;;;;;;7.25;3.17;;;;;;;20.50;66.19;100914.75;3511934;40;20026;-82
2021/08/10 09:35:38;;;;;;;7.03;3.17;;;;;;;20.50;67.32;100918.25;3521339;40;20066;-82
2021/08/10 09:38:16;;;;;;;7.93;3.53;;;;;;;20.57;68.33;100921.38;3526857;40;20046;-82
2021/08/10 09:40:52;;;;;;;10.00;4.20;;;;;;;20.63;68.18;100923.66;3515645;40;20054;-82
2021/08/10 09:43:35;;;;;;;8.48;3.47;;;;;;;20.69;69.37;100923.28;3502606;40;20411;-82
2021/08/10 09:46:22;;;;;;;8.88;3.80;;;;;;;20.78;65.18;100933.31;3513436;40;20483;-82
2021/08/10 09:48:55;;;;;;;10.35;4.20;;;;;;;20.88;66.35;100931.84;3524632;40;20399;-82
2021/08/10 09:51:28;;;;;;;9.15;4.00;;;;;;;20.93;66.08;100935.06;3516776;40;20050;-82
2021/08/10 09:54:00;;;;;;;13.98;4.95;;;;;;;20.97;64.82;100949.81;3502203;40;20057;-81
2021/08/10 09:56:53;;;;;;;7.40;3.42;;;;;;;21.09;68.82;100939.41;3517889;40;20093;-82
2021/08/10 09:59:22;;;;;;;9.90;4.28;;;;;;;21.12;66.25;100941.84;3522626;40;21030;-82
2021/08/10 10:01:55;;;;;;;8.68;4.65;;;;;;;21.27;64.94;100942.69;3553088;40;20498;-82
2021/08/10 10:04:29;;;;;;;9.20;4.03;;;;;;;21.52;66.76;100934.03;3524195;40;20068;-82
2021/08/10 10:07:11;;;;;;;10.63;5.25;;;;;;;21.90;67.03;100936.84;3559660;40;20145;-81
2021/08/10 10:10:03;;;;;;;6.95;3.67;;;;;;;22.15;64.11;100930.75;3571561;40;20081;-82
2021/08/10 10:12:45;;;;;;;7.75;4.05;;;;;;;22.41;62.26;100935.19;3566902;40;20108;-82
2021/08/10 10:15:12;;;;;;;7.70;3.65;;;;;;;22.64;64.52;100941.56;3567907;40;20119;-81
2021/08/10 10:17:40;;;;;;;5.40;2.97;;;;;;;22.83;62.58;100925.16;3578735;40;20049;-82
2021/08/10 10:20:13;;;;;;;8.00;3.35;;;;;;;23.31;65.47;100939.47;3563392;40;20065;-83
2021/08/10 10:22:44;;;;;;;6.32;2.72;;;;;;;23.59;59.73;100949.97;3571797;40;20070;-82
2021/08/10 10:25:39;;;;;;;6.05;2.67;;;;;;;23.99;65.17;100954.06;3579861;40;20085;-81
2021/08/10 10:28:06;;;;;;;4.82;2.65;;;;;;;24.11;59.41;100943.44;3577391;40;20080;-82
2021/08/10 10:30:34;;;;;;;4.43;2.30;;;;;;;24.51;58.39;100954.63;3574169;40;20053;-82
2021/08/10 10:33:02;;;;;;;3.28;1.83;;;;;;;24.89;58.26;100959.66;3576322;40;20062;-82
2021/08/10 10:35:31;;;;;;;4.40;2.42;;;;;;;25.20;57.75;100963.47;3568404;40;20092;-82
2021/08/10 10:37:59;;;;;;;4.00;2.30;;;;;;;25.35;55.81;100942.66;3575911;40;20065;-82
2021/08/10 10:40:26;;;;;;;4.82;2.20;;;;;;;25.46;55.78;100937.28;3566622;40;20430;-82
2021/08/10 10:42:56;;;;;;;2.25;1.30;;;;;;;25.64;57.94;100948.28;3567770;40;20057;-82
2021/08/10 10:45:34;;;;;;;3.47;1.58;;;;;;;25.85;59.01;100956.41;3571074;40;20078;-82
2021/08/10 10:48:27;;;;;;;4.43;2.03;;;;;;;25.99;59.73;100956.09;3565725;40;20396;-82
2021/08/10 10:51:14;;;;;;;2.38;1.15;;;;;;;26.12;59.72;100940.72;3570742;40;20341;-82
2021/08/10 10:53:43;;;;;;;2.50;1.40;;;;;;;26.26;52.17;100960.13;3577763;40;20088;-82
2021/08/10 10:56:25;;;;;;;1.83;1.05;;;;;;;26.43;58.14;100948.88;3569127;40;20176;-83
2021/08/10 10:59:16;;;;;;;2.50;1.25;;;;;;;26.36;54.03;100947.66;3571246;40;20049;-82
2021/08/10 11:02:26;;;;;;;3.03;1.42;;;;;;;26.37;55.02;100946.69;3566629;40;20061;-82
2021/08/10 11:05:11;;;;;;;2.17;1.17;;;;;;;26.31;55.53;100956.09;3539680;40;20045;-82
2021/08/10 11:07:45;;;;;;;2.88;1.35;;;;;;;26.14;55.69;100949.47;3556925;40;20059;-82
2021/08/10 11:10:34;;;;;;;3.65;1.17;;;;;;;26.07;54.33;100963.50;3566992;40;20081;-82
2021/08/10 11:13:04;;;;;;;2.22;1.38;;;;;;;26.03;54.31;100957.56;3566348;40;20527;-81
2021/08/10 11:15:46;;;;;;;4.63;1.40;;;;;;;26.26;55.93;100962.81;3565601;40;20069;-82
2021/08/10 11:18:14;;;;;;;1.85;1.17;;;;;;;26.22;50.13;100956.03;3552080;40;20069;-81
2021/08/10 11:20:46;;;;;;;3.22;1.33;;;;;;;26.30;52.00;100965.06;3559579;40;20053;-82
2021/08/10 11:23:26;;;;;;;1.77;1.08;;;;;;;26.37;55.56;100963.59;3560368;40;20065;-81
2021/08/10 11:26:05;;;;;;;2.72;1.30;;;;;;;26.50;54.25;100955.38;3574576;40;20064;-82
2021/08/10 11:28:36;;;;;;;2.42;1.42;;;;;;;26.57;50.56;100961.94;3553916;40;20061;-82
2021/08/10 11:31:06;;;;;;;3.20;1.17;;;;;;;26.63;49.90;100957.88;3566214;40;20804;-81
2021/08/10 11:33:41;;;;;;;1.75;0.88;;;;;;;26.68;53.83;100949.44;3575093;40;20079;-82
2021/08/10 11:36:10;;;;;;;1.90;1.23;;;;;;;26.63;52.62;100948.00;3568051;40;20048;-81
2021/08/10 11:38:48;;;;;;;1.55;1.08;;;;;;;26.61;52.20;100951.78;3569134;40;20056;-81
2021/08/10 11:41:19;;;;;;;3.63;1.52;;;;;;;26.48;48.81;100952.00;3572172;40;20493;-82
2021/08/10 11:43:53;;;;;;;2.95;1.42;;;;;;;26.37;51.79;100949.38;3574107;40;20075;-83
2021/08/10 11:46:39;;;;;;;4.82;2.10;;;;;;;26.19;53.65;100942.88;3563615;40;20608;-82
2021/08/10 11:49:16;;;;;;;3.78;1.50;;;;;;;26.04;53.08;100947.69;3556213;40;20065;-82
2021/08/10 11:51:44;;;;;;;;;;;;;;;25.94;55.52;100952.97;3555537;40;20069;-82
2021/08/10 11:54:20;;;;;;;4.13;2.20;;;;;;;25.67;51.38;100944.53;3552066;40;19964;-81
2021/08/10 11:57:02;;;;;;;3.33;1.23;;;;;;;25.47;51.71;100938.97;3553252;40;20060;-82
2021/08/10 11:59:33;;;;;;;3.25;1.38;;;;;;;25.34;50.80;100932.91;3575948;40;20069;-81
2021/08/10 12:02:01;;;;;;;2.47;1.50;;;;;;;25.26;47.86;100911.31;3568991;40;20138;-82
2021/08/10 12:04:31;;;;;;;2.45;1.25;;;;;;;25.72;48.31;100942.31;3576636;40;20105;-82
2021/08/10 12:07:05;;;;;;;2.22;1.40;;;;;;;26.07;49.82;100942.94;3573507;40;20763;-81
2021/08/10 12:09:36;;;;;;;3.97;1.60;;;;;;;26.24;46.35;100928.13;3554406;40;20423;-82
2021/08/10 12:12:12;;;;;;;3.90;1.10;;;;;;;26.54;52.21;100923.84;3577154;40;20081;-81
2021/08/10 12:14:40;;;;;;;2.30;1.23;;;;;;;26.62;51.12;100932.06;3554405;40;20105;-82
2021/08/10 12:17:13;;;;;;;5.05;1.92;;;;;;;26.58;49.80;100919.91;3556750;40;20049;-82
2021/08/10 12:19:46;;;;;;;2.28;1.48;;;;;;;26.55;51.22;100926.38;3576660;40;20405;-81
2021/08/10 12:22:23;;;;;;;2.88;1.50;;;;;;;26.50;49.58;100933.94;3561097;40;20063;-82
2021/08/10 12:24:53;;;;;;;2.10;1.23;;;;;;;26.33;48.71;100927.34;3561093;40;20052;-82
2021/08/10 12:27:28;;;;;;;1.88;1.38;;;;;;;26.35;48.77;100929.88;3576259;40;20055;-82
2021/08/10 12:29:55;;;;;;;3.45;1.70;;;;;;;26.16;47.94;100919.91;3562705;40;20047;-81